• Join FlightAware (Why Join?)
  • Login
  • US Flag 
07:28PM EDT


 

Airport Tracker/Info


-or-


 

Live Flight TrackerFlight Track Log ✈ G52651 ✈ 10-Oct-2013 ✈ ZUCK / CKG - ZGNN / NNG

Flight Track Log - Related Links

Times and Time Zones

All times are in EDT time to prevent confusion due to time zone crossing. See the G52651 flight status page for this flight to view local times or setup timezone preferences in your user account.

Time Position Orientation Groundspeed Altitude Reporting Facility
EDT Latitude Longitude Course Direction KTS MPH feet Rate Location/Type
09:35PM 29.0735 106.7885 169° South  Level Estimated
09:36PM 28.9813 106.8094 169° South  Level Estimated
09:37PM 28.8890 106.8302 169° South  Level Estimated
09:38PM 28.7967 106.8511 169° South  Level Estimated
09:39PM 28.7044 106.8719 169° South  Level Estimated
09:40PM 28.6121 106.8926 169° South  Level Estimated
09:41PM 28.5198 106.9134 169° South  Level Estimated
09:42PM 28.4276 106.9341 169° South  Level Estimated
09:43PM 28.3353 106.9547 169° South  Level Estimated
09:44PM 28.2430 106.9753 169° South  Level Estimated
09:45PM 28.1507 106.9959 169° South  Level Estimated
09:46PM 28.0583 107.0164 169° South  Level Estimated
09:47PM 27.9660 107.0370 169° South  Level Estimated
09:48PM 27.8737 107.0574 169° South  Level Estimated
09:49PM 27.7814 107.0779 169° South  Level Estimated
09:50PM 27.6891 107.0983 169° South  Level Estimated
09:51PM 27.5968 107.1187 169° South  Level Estimated
09:52PM 27.5044 107.1390 169° South  Level Estimated
09:53PM 27.4121 107.1593 169° South  Level Estimated
09:54PM 27.3198 107.1796 169° South  Level Estimated
09:55PM 27.2275 107.1998 169° South  Level Estimated
09:56PM 27.1351 107.2200 169° South  Level Estimated
09:57PM 27.0428 107.2402 169° South  Level Estimated
09:58PM 26.9504 107.2603 169° South  Level Estimated
09:59PM 26.8581 107.2804 169° South  Level Estimated
10:00PM 26.7658 107.3005 169° South  Level Estimated
10:01PM 26.6734 107.3205 169° South  Level Estimated
10:02PM 26.5811 107.3406 169° South  Level Estimated
10:03PM 26.4887 107.3605 169° South  Level Estimated
10:04PM 26.3963 107.3805 169° South  Level Estimated
10:05PM 26.3040 107.4004 169° South  Level Estimated
10:06PM 26.2116 107.4202 169° South  Level Estimated
10:07PM 26.1192 107.4401 169° South  Level Estimated
10:08PM 26.0269 107.4599 169° South  Level Estimated
10:09PM 25.9345 107.4797 169° South  Level Estimated
10:10PM 25.8421 107.4995 169° South  Level Estimated
10:11PM 25.7498 107.5192 169° South  Level Estimated
10:12PM 25.6574 107.5389 169° South  Level Estimated
10:13PM 25.5650 107.5585 169° South  Level Estimated
10:14PM 25.4726 107.5781 169° South  Level Estimated
10:15PM 25.3802 107.5977 169° South  Level Estimated
10:16PM 25.2878 107.6173 169° South  Level Estimated
10:17PM 25.1954 107.6369 169° South  Level Estimated
10:18PM 25.1030 107.6564 169° South  Level Estimated
10:19PM 25.0106 107.6758 169° South  Level Estimated
10:20PM 24.9182 107.6953 169° South  Level Estimated
10:21PM 24.8258 107.7147 169° South  Level Estimated
10:22PM 24.7334 107.7341 169° South  Level Estimated
10:23PM 24.6410 107.7535 169° South  Level Estimated
10:24PM 24.5486 107.7728 169° South  Level Estimated
10:25PM 24.4562 107.7922 169° South  Level Estimated
10:26PM 24.3638 107.8114 169° South  Level Estimated
10:27PM 24.2714 107.8307 169° South  Level Estimated
10:28PM 24.1789 107.8499 169° South  Level Estimated
10:29PM 24.0865 107.8691 169° South  Level Estimated
10:30PM 23.9941 107.8883 169° South  Level Estimated
10:31PM 23.9016 107.9074 169° South  Level Estimated
10:32PM 23.8092 107.9265 169° South  Level Estimated
10:33PM 23.7168 107.9456 169° South  Level Estimated
10:34PM 23.6244 107.9647 169° South  Level Estimated
10:35PM 23.5319 107.9837 169° South  Level Estimated
10:36PM 23.4395 108.0027 169° South  Level Estimated
10:37PM 23.3470 108.0217 169° South  Level Estimated
10:38PM 23.2546 108.0407 169° South  Level Estimated
10:39PM 23.1621 108.0596 169° South  Level Estimated
10:40PM 23.0697 108.0785 169° South  Level Estimated
10:41PM 22.9772 108.0974 169° South  Level Estimated
10:42PM 22.8848 108.1162 169° South  Level Estimated
10:43PM 22.7923 108.1350 169° South  Level Estimated
10:44PM 22.6999 108.1538 169° South  Level Estimated
10:45PM 22.6083 108.1724 169° South  Level Estimated
10:46PM 22.6083 108.1724 148° Southeast  Level Estimated
10:47PM 22.6083 108.1724 148° Southeast  Level Estimated
10:48PM 22.6083 108.1724 148° Southeast  Level Estimated
10:49PM 22.6083 108.1724 148° Southeast  Level Estimated
10:50PM 22.6083 108.1724 148° Southeast  Level Estimated
10:51PM 22.6083 108.1724 148° Southeast  Level Estimated
10:52PM 22.6083 108.1724 148° Southeast  Level Estimated
10:53PM 22.6083 108.1724 148° Southeast  Level Estimated
10:54PM 22.6083 108.1724 148° Southeast  Level Estimated
10:55PM 22.6083 108.1724 148° Southeast  Level Estimated
10:56PM 22.6083 108.1724 148° Southeast  Level Estimated
10:57PM 22.6083 108.1724 148° Southeast  Level Estimated
10:58PM 22.6083 108.1724 148° Southeast  Level Estimated
10:59PM 22.6083 108.1724 148° Southeast  Level Estimated
11:00PM 22.6083 108.1724 148° Southeast  Level Estimated
11:01PM 22.6083 108.1724 148° Southeast  Level Estimated